Time;durP1;ratioP1;P1;durP2;ratioP2;P2;SDS_P1;SDS_P2;PMS_P1;PMS_P2;Temp;Humidity;BMP_temperature;BMP_pressure;BME280_temperature;BME280_humidity;BME280_pressure;Samples;Min_cycle;Max_cycle;Signal;HPM_P1;HPM_P2
2022/05/16 05:00:40;;;;;;;3.50;3.20;;;18.20;97.20;;;;;;1749042;28;20186;-75
2022/05/16 05:01:31;;;;;;;3.50;2.92;;;18.20;97.20;;;;;;1748992;28;20582;-75
2022/05/16 05:02:23;;;;;;;3.53;3.20;;;18.20;97.20;;;;;;1748912;28;20218;-75
2022/05/16 05:03:14;;;;;;;3.58;3.00;;;18.20;97.20;;;;;;1748995;28;20229;-76
2022/05/16 05:04:05;;;;;;;3.40;3.10;;;18.20;97.20;;;;;;1748948;28;20685;-75
2022/05/16 05:04:56;;;;;;;4.28;3.38;;;18.20;97.20;;;;;;1748902;28;20665;-76
2022/05/16 05:05:48;;;;;;;3.40;3.10;;;18.30;97.20;;;;;;1748859;28;20198;-76
2022/05/16 05:06:39;;;;;;;7.28;3.05;;;18.30;97.20;;;;;;1748611;28;20454;-76
2022/05/16 05:07:31;;;;;;;4.97;3.75;;;18.30;97.20;;;;;;1748755;28;20229;-75
2022/05/16 05:08:22;;;;;;;3.50;3.20;;;18.30;97.20;;;;;;1748816;28;20202;-75
2022/05/16 05:09:13;;;;;;;3.87;3.30;;;18.30;97.20;;;;;;1748951;28;20681;-75
2022/05/16 05:14:42;;;;;;;4.10;3.75;;;18.40;97.20;;;;;;1755926;28;20240;-75
2022/05/16 05:15:34;;;;;;;3.80;3.50;;;18.40;97.20;;;;;;1755846;28;20575;-76
2022/05/16 05:16:29;;;;;;;4.50;4.10;;;18.40;97.20;;;;;;1755705;28;20197;-75
2022/05/16 05:17:21;;;;;;;4.22;3.20;;;18.40;97.20;;;;;;1755743;28;20420;-75
2022/05/16 05:18:13;;;;;;;4.10;3.70;;;18.40;97.20;;;;;;1755712;28;20255;-75
2022/05/16 05:19:04;;;;;;;3.95;3.47;;;18.40;97.20;;;;;;1755767;28;20229;-75
2022/05/16 05:19:56;;;;;;;3.87;3.37;;;18.40;97.20;;;;;;1755864;28;20198;-75
2022/05/16 05:20:47;;;;;;;3.67;3.33;;;18.50;97.20;;;;;;1755743;28;20216;-75
2022/05/16 05:21:38;;;;;;;3.25;3.05;;;18.50;97.20;;;;;;1755909;28;20197;-75
2022/05/16 05:22:29;;;;;;;4.18;3.78;;;18.50;97.20;;;;;;1755794;28;20758;-75
2022/05/16 05:23:22;;;;;;;3.78;3.28;;;18.50;97.20;;;;;;1755806;28;20233;-75
2022/05/16 05:24:13;;;;;;;3.53;3.22;;;18.50;97.20;;;;;;1755771;28;20231;-75
2022/05/16 05:25:05;;;;;;;3.93;3.53;;;18.50;97.20;;;;;;1755727;28;20227;-76
2022/05/16 05:25:57;;;;;;;4.10;3.70;;;18.50;97.20;;;;;;1755738;28;20436;-75
2022/05/16 05:26:48;;;;;;;4.60;3.65;;;18.60;97.20;;;;;;1751829;28;20277;-76
2022/05/16 05:27:40;;;;;;;4.05;3.63;;;18.60;97.20;;;;;;1748714;28;20226;-75
2022/05/16 05:28:31;;;;;;;4.20;3.50;;;18.60;97.20;;;;;;1748864;28;20842;-75
2022/05/16 05:29:22;;;;;;;3.58;3.28;;;18.60;97.20;;;;;;1748764;28;20202;-76
2022/05/16 05:30:16;;;;;;;3.90;3.60;;;18.70;97.20;;;;;;1748765;28;20681;-75
2022/05/16 05:31:11;;;;;;;3.63;3.33;;;18.70;97.20;;;;;;1748768;28;20241;-75
2022/05/16 05:32:07;;;;;;;3.70;3.40;;;18.70;97.20;;;;;;1748617;28;20197;-76
2022/05/16 05:32:58;;;;;;;3.70;3.40;;;18.80;97.20;;;;;;1748792;28;20696;-76
2022/05/16 05:33:50;;;;;;;3.95;3.05;;;18.80;97.20;;;;;;1748768;28;20560;-75
2022/05/16 05:34:41;;;;;;;3.58;3.28;;;18.80;97.20;;;;;;1748750;28;20700;-75
2022/05/16 05:35:33;;;;;;;4.30;3.40;;;18.80;97.20;;;;;;1748743;28;20677;-75
2022/05/16 05:36:25;;;;;;;5.10;3.47;;;18.80;97.20;;;;;;1748450;28;20240;-75
2022/05/16 05:37:17;;;;;;;3.30;3.10;;;18.90;97.20;;;;;;1748420;28;20240;-75
2022/05/16 05:38:09;;;;;;;3.40;3.10;;;18.90;97.20;;;;;;1748582;28;20202;-76
2022/05/16 05:39:01;;;;;;;5.50;3.70;;;18.90;97.20;;;;;;1748654;28;20198;-76
2022/05/16 05:39:52;;;;;;;3.80;3.28;;;18.90;97.20;;;;;;1748805;28;20567;-76
2022/05/16 05:40:44;;;;;;;4.18;3.88;;;18.90;97.20;;;;;;1748615;28;20202;-76
2022/05/16 05:41:35;;;;;;;5.28;3.70;;;18.90;97.20;;;;;;1754838;28;20226;-76
2022/05/16 05:42:27;;;;;;;4.03;3.40;;;18.90;97.20;;;;;;1755601;28;20685;-76
2022/05/16 05:43:18;;;;;;;3.70;3.40;;;18.90;97.20;;;;;;1755716;28;20578;-76
2022/05/16 05:44:10;;;;;;;3.37;3.17;;;18.90;97.20;;;;;;1755683;28;20562;-76
2022/05/16 05:45:02;;;;;;;3.60;3.30;;;18.90;97.20;;;;;;1755637;28;20467;-76
2022/05/16 05:45:54;;;;;;;6.18;3.70;;;18.90;97.20;;;;;;1755678;28;20205;-76
2022/05/16 05:46:46;;;;;;;3.78;3.47;;;18.90;97.20;;;;;;1755289;28;20686;-76
2022/05/16 05:47:39;;;;;;;6.75;3.50;;;18.90;97.20;;;;;;1755589;28;20274;-76
2022/05/16 05:48:30;;;;;;;5.05;3.65;;;18.90;97.20;;;;;;1755591;28;20236;-76
2022/05/16 05:49:22;;;;;;;3.97;3.67;;;18.90;97.20;;;;;;1755635;28;20209;-76
2022/05/16 05:50:13;;;;;;;4.18;3.70;;;18.90;97.20;;;;;;1755587;28;20439;-76
2022/05/16 05:51:05;;;;;;;4.03;3.63;;;18.90;97.20;;;;;;1755573;28;20200;-75
2022/05/16 05:51:56;;;;;;;4.88;3.30;;;18.90;97.20;;;;;;1755488;28;20233;-76
2022/05/16 05:52:48;;;;;;;3.35;3.10;;;19.00;97.20;;;;;;1755574;28;20198;-76
2022/05/16 05:53:41;;;;;;;4.13;3.70;;;19.00;97.20;;;;;;1755537;28;20213;-76
2022/05/16 05:54:32;;;;;;;4.40;3.72;;;19.00;97.20;;;;;;1755585;28;20263;-76
2022/05/16 05:55:23;;;;;;;3.72;3.10;;;19.00;97.20;;;;;;1753749;28;20202;-76
2022/05/16 05:56:15;;;;;;;3.87;3.50;;;19.10;97.20;;;;;;1748513;28;20198;-76
2022/05/16 05:57:06;;;;;;;3.88;3.58;;;19.10;97.20;;;;;;1748237;28;20677;-76
2022/05/16 05:57:58;;;;;;;5.53;3.80;;;19.10;97.20;;;;;;1748465;28;20630;-76
2022/05/16 05:58:49;;;;;;;4.43;4.10;;;19.10;97.20;;;;;;1748524;28;20320;-76
2022/05/16 05:59:41;;;;;;;3.70;3.30;;;19.20;97.20;;;;;;1748623;28;20304;-76
2022/05/16 06:00:32;;;;;;;4.10;3.80;;;19.20;97.20;;;;;;1748490;28;20241;-75
2022/05/16 06:01:24;;;;;;;3.63;3.33;;;19.20;97.20;;;;;;1748494;28;20214;-76
2022/05/16 06:02:14;;;;;;;5.32;3.85;;;19.20;97.20;;;;;;1748469;28;20732;-76
2022/05/16 06:03:08;;;;;;;5.53;4.40;;;19.20;97.20;;;;;;1748500;28;20676;-76
2022/05/16 06:03:58;;;;;;;4.57;4.03;;;19.20;97.20;;;;;;1748610;28;20202;-76
2022/05/16 06:04:50;;;;;;;4.37;3.97;;;19.20;97.20;;;;;;1748522;28;20202;-76
2022/05/16 06:05:42;;;;;;;4.40;4.00;;;19.30;97.20;;;;;;1748524;28;20198;-76
2022/05/16 06:06:33;;;;;;;3.80;3.50;;;19.30;97.20;;;;;;1748311;28;20734;-76
2022/05/16 06:07:24;;;;;;;4.20;3.90;;;19.30;97.20;;;;;;1748271;28;20228;-76
2022/05/16 06:08:16;;;;;;;4.40;3.80;;;19.30;97.20;;;;;;1748480;28;20203;-76
2022/05/16 06:09:07;;;;;;;3.92;3.58;;;19.30;97.20;;;;;;1748581;28;20606;-76
2022/05/16 06:09:58;;;;;;;4.13;3.73;;;19.20;97.20;;;;;;1748208;28;20194;-76
2022/05/16 06:10:50;;;;;;;3.42;3.22;;;19.30;97.20;;;;;;1748426;28;20224;-76
2022/05/16 06:11:41;;;;;;;3.47;3.05;;;19.30;97.20;;;;;;1747945;28;20252;-76
2022/05/16 06:12:32;;;;;;;6.50;3.45;;;19.30;97.20;;;;;;1748067;28;20249;-75
2022/05/16 06:13:24;;;;;;;3.90;3.47;;;19.30;97.20;;;;;;1748061;28;20308;-76
2022/05/16 06:14:16;;;;;;;3.60;3.20;;;19.30;97.20;;;;;;1748242;28;20225;-76
2022/05/16 06:15:09;;;;;;;3.75;3.38;;;19.30;97.20;;;;;;1748264;28;20198;-76
2022/05/16 06:16:00;;;;;;;4.03;3.63;;;19.30;97.20;;;;;;1748406;28;20210;-76
2022/05/16 06:16:52;;;;;;;4.07;3.20;;;19.40;97.20;;;;;;1748266;28;20262;-76
2022/05/16 06:17:43;;;;;;;3.75;3.45;;;19.40;97.20;;;;;;1748416;28;20722;-76
2022/05/16 06:18:37;;;;;;;3.55;3.25;;;19.40;97.20;;;;;;1748478;28;20203;-76
2022/05/16 06:19:28;;;;;;;3.75;3.35;;;19.50;97.20;;;;;;1748402;28;20210;-76
2022/05/16 06:20:19;;;;;;;3.77;3.47;;;19.50;97.20;;;;;;1748541;28;20285;-76
2022/05/16 06:21:10;;;;;;;3.78;3.47;;;19.50;97.20;;;;;;1748356;28;20832;-76
2022/05/16 06:22:02;;;;;;;4.13;3.37;;;19.50;97.20;;;;;;1748408;28;20666;-76
2022/05/16 06:22:54;;;;;;;4.45;3.72;;;19.60;97.20;;;;;;1748389;28;20226;-76
2022/05/16 06:23:46;;;;;;;3.97;3.67;;;19.60;97.20;;;;;;1748984;28;20226;-78
2022/05/16 06:25:46;;;;;;;3.90;3.55;;;19.70;97.20;;;;;;1748645;28;20198;-79
2022/05/16 06:26:38;;;;;;;7.65;3.15;;;19.80;97.20;;;;;;1748474;28;20583;-78
2022/05/16 06:27:29;;;;;;;3.85;3.55;;;19.80;97.20;;;;;;1749516;28;20205;-78
2022/05/16 06:28:23;;;;;;;3.58;3.28;;;19.80;97.20;;;;;;1743498;28;20286;-78
2022/05/16 06:29:14;;;;;;;3.70;3.40;;;19.80;97.20;;;;;;1742475;28;20234;-78
2022/05/16 06:30:07;;;;;;;3.57;3.27;;;19.80;97.20;;;;;;1741896;28;20195;-78
2022/05/16 06:30:58;;;;;;;4.07;3.65;;;19.90;97.20;;;;;;1742450;28;20232;-79
2022/05/16 06:31:50;;;;;;;3.50;3.30;;;19.90;97.20;;;;;;1752543;28;20193;-78
2022/05/16 06:32:40;;;;;;;6.60;3.63;;;19.90;97.20;;;;;;1755650;28;20700;-78
2022/05/16 06:33:32;;;;;;;4.60;3.83;;;19.90;97.20;;;;;;1755818;28;20571;-78
2022/05/16 06:34:24;;;;;;;3.75;3.45;;;19.90;97.20;;;;;;1752282;28;20213;-79
2022/05/16 06:35:17;;;;;;;4.88;3.35;;;19.90;97.20;;;;;;1748613;28;20240;-78
2022/05/16 06:36:09;;;;;;;3.60;3.28;;;20.00;97.20;;;;;;1748575;28;20705;-77
2022/05/16 06:36:59;;;;;;;3.25;3.05;;;20.00;97.20;;;;;;1748448;28;20259;-77
2022/05/16 06:37:51;;;;;;;3.50;3.20;;;20.00;97.20;;;;;;1748544;28;20204;-78
2022/05/16 06:38:42;;;;;;;3.70;3.40;;;20.00;97.20;;;;;;1748674;28;20323;-78
2022/05/16 06:39:34;;;;;;;3.73;2.90;;;20.10;97.20;;;;;;1748594;28;20259;-78
2022/05/16 06:40:25;;;;;;;3.65;3.35;;;20.10;97.20;;;;;;1748530;28;20237;-77
2022/05/16 06:41:16;;;;;;;3.70;3.40;;;20.20;97.20;;;;;;1748337;28;20202;-77
2022/05/16 06:42:08;;;;;;;3.60;3.30;;;20.20;97.20;;;;;;1748567;28;20433;-78
2022/05/16 06:43:00;;;;;;;3.40;3.10;;;20.30;97.20;;;;;;1748777;28;20555;-77
2022/05/16 06:43:52;;;;;;;3.90;3.50;;;20.30;97.20;;;;;;1748693;28;20198;-78
2022/05/16 06:44:42;;;;;;;3.83;3.45;;;20.30;97.20;;;;;;1748862;28;20198;-77
2022/05/16 06:45:34;;;;;;;3.93;3.63;;;20.40;97.20;;;;;;1752253;28;20196;-77
2022/05/16 06:46:25;;;;;;;3.42;3.10;;;20.40;97.20;;;;;;1748659;28;20233;-77
2022/05/16 06:47:16;;;;;;;3.73;3.43;;;20.40;97.20;;;;;;1748313;28;20206;-77
2022/05/16 06:48:08;;;;;;;3.80;3.50;;;20.50;97.20;;;;;;1747647;28;20225;-77
2022/05/16 06:49:00;;;;;;;3.53;3.22;;;20.50;97.20;;;;;;1748754;28;20195;-78
2022/05/16 06:49:52;;;;;;;3.63;3.25;;;20.50;97.20;;;;;;1748858;28;20206;-77
2022/05/16 06:50:46;;;;;;;4.85;3.53;;;20.60;97.20;;;;;;1748675;28;20297;-77
2022/05/16 06:51:37;;;;;;;3.67;3.38;;;20.60;97.20;;;;;;1748555;28;20267;-78
2022/05/16 06:52:28;;;;;;;4.50;3.50;;;20.60;97.20;;;;;;1748319;28;20234;-77
2022/05/16 06:53:22;;;;;;;3.60;3.30;;;20.70;97.20;;;;;;1748663;28;20578;-77
2022/05/16 06:54:14;;;;;;;7.20;3.83;;;20.70;97.20;;;;;;1748585;28;20217;-77
2022/05/16 06:55:06;;;;;;;3.70;3.40;;;20.70;97.20;;;;;;1748400;28;20194;-77
2022/05/16 06:55:58;;;;;;;4.18;3.15;;;20.80;97.20;;;;;;1748626;28;20236;-78
2022/05/16 06:56:49;;;;;;;3.80;3.50;;;20.90;97.20;;;;;;1747407;28;20190;-78
2022/05/16 06:57:41;;;;;;;3.57;3.27;;;20.90;97.20;;;;;;1748136;28;20312;-77
2022/05/16 06:58:32;;;;;;;3.42;3.13;;;21.00;97.20;;;;;;1748071;28;20696;-78
2022/05/16 06:59:23;;;;;;;4.17;3.77;;;21.10;97.20;;;;;;1747936;28;20262;-77
2022/05/16 07:00:15;;;;;;;4.15;3.40;;;21.10;97.20;;;;;;1749419;28;20240;-78
2022/05/16 07:01:07;;;;;;;3.15;2.92;;;21.20;97.20;;;;;;1748446;28;20229;-77
2022/05/16 07:01:58;;;;;;;4.57;3.35;;;21.20;97.20;;;;;;1747765;28;20195;-78
2022/05/16 07:02:50;;;;;;;3.80;3.40;;;21.30;97.20;;;;;;1748180;28;20194;-78
2022/05/16 07:03:42;;;;;;;3.30;3.10;;;21.30;97.20;;;;;;1748230;28;20445;-78
2022/05/16 07:04:36;;;;;;;3.42;3.13;;;21.40;97.20;;;;;;1748456;28;20569;-78
2022/05/16 07:05:29;;;;;;;3.70;3.40;;;21.40;97.20;;;;;;1745650;28;20237;-78
2022/05/16 07:06:21;;;;;;;3.80;3.50;;;21.50;97.20;;;;;;1747801;28;20642;-77
2022/05/16 07:07:12;;;;;;;6.18;3.55;;;21.60;97.20;;;;;;1747603;28;20217;-77
2022/05/16 07:08:04;;;;;;;3.40;3.20;;;21.60;97.20;;;;;;1747790;28;20268;-78
2022/05/16 07:08:55;;;;;;;5.20;3.40;;;21.70;97.20;;;;;;1748043;28;20206;-78
2022/05/16 07:09:47;;;;;;;3.63;3.35;;;21.80;97.20;;;;;;1744942;28;20717;-77
2022/05/16 07:10:38;;;;;;;3.65;3.13;;;21.90;97.20;;;;;;1748152;28;20206;-77
2022/05/16 07:11:32;;;;;;;3.90;3.50;;;21.90;97.20;;;;;;1748012;28;20194;-78
2022/05/16 07:12:23;;;;;;;3.70;3.40;;;22.00;97.20;;;;;;1748427;28;20301;-77
2022/05/16 07:13:15;;;;;;;3.70;3.10;;;22.10;97.20;;;;;;1748871;28;20209;-78
2022/05/16 07:14:06;;;;;;;3.78;3.45;;;22.10;97.20;;;;;;1748577;28;20560;-78
2022/05/16 07:14:58;;;;;;;6.70;3.50;;;22.20;97.20;;;;;;1748665;28;20583;-78
2022/05/16 07:15:48;;;;;;;4.28;3.70;;;22.30;97.20;;;;;;1748800;28;20239;-79
2022/05/16 07:16:40;;;;;;;4.10;3.30;;;22.40;97.20;;;;;;1748179;28;20190;-78
2022/05/16 07:17:31;;;;;;;3.97;3.53;;;22.50;97.20;;;;;;1748754;28;20203;-78
2022/05/16 07:18:23;;;;;;;5.20;4.03;;;22.60;97.20;;;;;;1748413;28;20194;-78
2022/05/16 07:19:14;;;;;;;4.05;3.67;;;22.70;97.20;;;;;;1748247;28;20452;-78
2022/05/16 07:20:07;;;;;;;5.17;4.00;;;22.80;97.20;;;;;;1767349;23;20202;-70
2022/05/16 07:20:59;;;;;;;4.57;4.03;;;22.80;97.20;;;;;;1741150;28;20702;-71
2022/05/16 07:21:50;;;;;;;4.95;3.47;;;22.90;97.20;;;;;;1741098;28;20670;-71
2022/05/16 07:22:45;;;;;;;4.65;4.30;;;23.00;97.20;;;;;;1741148;28;20199;-71
2022/05/16 07:23:37;;;;;;;7.13;3.97;;;23.00;97.20;;;;;;1741103;28;20598;-71
2022/05/16 07:24:27;;;;;;;4.43;4.03;;;23.10;97.20;;;;;;1741042;28;20199;-71
2022/05/16 07:25:25;;;;;;;4.67;3.87;;;23.20;97.20;;;;;;1741253;28;20199;-71
2022/05/16 07:28:34;;;;;;;5.50;3.80;;;23.40;97.20;;;;;;1740209;28;20760;-71
2022/05/16 07:29:26;;;;;;;5.30;4.00;;;23.50;97.20;;;;;;1740621;28;20199;-71
2022/05/16 07:30:18;;;;;;;4.65;3.95;;;23.50;97.20;;;;;;1740282;28;20268;-71
2022/05/16 07:31:10;;;;;;;5.95;3.95;;;23.60;97.20;;;;;;1740550;28;20195;-71
2022/05/16 07:32:02;;;;;;;4.15;3.65;;;23.60;97.20;;;;;;1741083;28;20261;-72
2022/05/16 07:32:55;;;;;;;4.32;3.90;;;23.70;97.20;;;;;;1741074;28;20735;-71
2022/05/16 07:33:46;;;;;;;4.53;3.70;;;23.70;97.20;;;;;;1741007;28;20206;-71
2022/05/16 07:34:37;;;;;;;4.33;3.90;;;23.80;97.20;;;;;;1740897;28;20209;-71
2022/05/16 07:35:32;;;;;;;6.60;4.32;;;23.80;97.20;;;;;;1740932;28;20238;-71
2022/05/16 07:36:25;;;;;;;4.10;3.72;;;23.80;97.20;;;;;;1741126;28;20199;-71
2022/05/16 07:37:16;;;;;;;4.82;4.32;;;23.80;97.20;;;;;;1740799;28;20206;-71
2022/05/16 07:38:07;;;;;;;5.10;3.87;;;23.80;97.20;;;;;;1740990;28;20281;-71
2022/05/16 07:38:58;;;;;;;5.13;4.32;;;23.80;97.20;;;;;;1741051;28;20233;-71
2022/05/16 07:39:50;;;;;;;4.40;4.10;;;23.80;97.20;;;;;;1740960;28;20209;-71
2022/05/16 07:40:40;;;;;;;6.05;4.15;;;23.90;97.20;;;;;;1740994;28;20689;-71
2022/05/16 07:41:32;;;;;;;5.10;4.63;;;23.90;97.20;;;;;;1741168;28;20662;-71
2022/05/16 07:42:23;;;;;;;6.50;4.10;;;23.90;97.20;;;;;;1741079;28;20232;-71
2022/05/16 07:43:15;;;;;;;4.73;4.30;;;24.00;97.20;;;;;;1740517;28;20200;-71
2022/05/16 07:44:06;;;;;;;4.60;4.28;;;24.10;97.20;;;;;;1741031;28;20207;-71
2022/05/16 07:45:00;;;;;;;7.60;4.73;;;24.10;97.20;;;;;;1741040;28;20231;-71
2022/05/16 07:45:51;;;;;;;5.68;4.68;;;24.20;97.20;;;;;;1741011;28;20469;-71
2022/05/16 07:46:43;;;;;;;5.72;4.40;;;24.30;97.20;;;;;;1740713;28;20218;-71
2022/05/16 07:47:34;;;;;;;5.25;4.43;;;24.30;97.20;;;;;;1740991;28;20234;-71
2022/05/16 07:48:26;;;;;;;5.30;3.90;;;24.30;97.20;;;;;;1740919;28;20211;-71
2022/05/16 07:49:18;;;;;;;6.28;4.40;;;24.40;97.20;;;;;;1740986;28;20195;-71
2022/05/16 07:50:10;;;;;;;4.70;4.00;;;24.40;97.20;;;;;;1740912;28;20592;-71
2022/05/16 07:51:01;;;;;;;6.78;4.50;;;24.40;97.20;;;;;;1740998;28;20575;-71
2022/05/16 07:51:54;;;;;;;4.50;4.10;;;24.50;97.20;;;;;;1740969;28;20572;-71
2022/05/16 07:52:47;;;;;;;6.40;4.60;;;24.50;97.20;;;;;;1740962;28;20480;-71
2022/05/16 07:53:39;;;;;;;4.00;3.70;;;24.60;97.20;;;;;;1740934;28;20203;-72
2022/05/16 07:54:30;;;;;;;5.32;4.43;;;24.60;97.20;;;;;;1740906;28;20214;-71
2022/05/16 07:55:24;;;;;;;4.80;4.40;;;24.70;97.20;;;;;;1741044;28;20283;-71
2022/05/16 07:56:15;;;;;;;5.28;4.40;;;24.70;97.20;;;;;;1740970;28;20206;-71
2022/05/16 07:57:06;;;;;;;5.23;4.73;;;24.70;97.20;;;;;;1740462;28;20236;-71
2022/05/16 07:57:57;;;;;;;6.65;4.30;;;24.80;97.20;;;;;;1737239;28;20202;-71
2022/05/16 07:58:49;;;;;;;4.60;4.07;;;24.80;97.20;;;;;;1740952;28;20203;-71
2022/05/16 07:59:41;;;;;;;4.85;4.45;;;24.80;97.20;;;;;;1741997;28;20203;-71
2022/05/16 08:00:33;;;;;;;7.00;4.65;;;24.80;97.20;;;;;;1742104;28;20215;-71
2022/05/16 08:01:24;;;;;;;4.80;4.35;;;24.80;97.20;;;;;;1742430;28;20695;-71
2022/05/16 08:02:16;;;;;;;5.00;4.17;;;24.90;97.20;;;;;;1742453;28;20202;-71
2022/05/16 08:03:10;;;;;;;4.30;3.90;;;24.90;97.20;;;;;;1742329;28;20480;-71
2022/05/16 08:04:04;;;;;;;4.65;4.25;;;24.80;97.20;;;;;;1742409;28;20195;-71
2022/05/16 08:04:55;;;;;;;4.65;4.07;;;24.80;97.20;;;;;;1742456;28;20667;-71
2022/05/16 08:05:47;;;;;;;5.90;4.60;;;24.80;97.20;;;;;;1742337;28;20592;-71
2022/05/16 08:06:38;;;;;;;4.53;4.13;;;24.70;97.20;;;;;;1742102;28;20621;-72
2022/05/16 08:07:31;;;;;;;4.80;4.30;;;24.70;97.20;;;;;;1742269;28;20560;-71
2022/05/16 08:10:41;;;;;;;4.70;4.30;;;24.50;97.20;;;;;;1742459;28;20724;-71
2022/05/16 08:11:33;;;;;;;7.28;4.43;;;24.40;97.20;;;;;;1742377;28;20846;-71
2022/05/16 08:12:25;;;;;;;7.22;4.20;;;24.40;97.20;;;;;;1742420;28;20653;-71
2022/05/16 08:13:17;;;;;;;4.75;4.22;;;24.30;97.20;;;;;;1742310;28;20279;-71
2022/05/16 08:14:09;;;;;;;6.18;4.60;;;24.30;97.20;;;;;;1742408;28;20652;-71
2022/05/16 08:15:00;;;;;;;4.75;4.35;;;24.30;97.20;;;;;;1742380;28;20195;-71
2022/05/16 08:15:51;;;;;;;4.55;4.18;;;24.20;97.20;;;;;;1742246;28;20236;-71
2022/05/16 08:16:42;;;;;;;4.47;4.07;;;24.20;97.20;;;;;;1742104;28;20474;-71
2022/05/16 08:17:34;;;;;;;5.23;4.73;;;24.10;97.20;;;;;;1742287;28;20249;-71
2022/05/16 08:18:25;;;;;;;4.93;4.53;;;24.10;97.20;;;;;;1742252;28;20633;-71
2022/05/16 08:19:17;;;;;;;5.18;4.65;;;24.10;97.20;;;;;;1742418;28;20203;-71
2022/05/16 08:20:10;;;;;;;4.97;4.57;;;24.10;97.20;;;;;;1742095;28;20223;-71
2022/05/16 08:21:02;;;;;;;6.50;4.32;;;24.00;97.20;;;;;;1742308;28;20230;-71
2022/05/16 08:21:52;;;;;;;5.82;5.20;;;23.90;97.20;;;;;;1741946;28;20214;-71
2022/05/16 08:22:46;;;;;;;5.47;4.37;;;23.80;97.20;;;;;;1742281;28;20282;-71
2022/05/16 08:23:36;;;;;;;5.25;4.75;;;23.80;97.20;;;;;;1742281;28;20302;-71
2022/05/16 08:24:28;;;;;;;5.10;4.60;;;23.70;97.20;;;;;;1742275;28;20195;-71
2022/05/16 08:25:19;;;;;;;5.55;5.05;;;23.70;97.20;;;;;;1742199;28;20199;-71
2022/05/16 08:26:11;;;;;;;5.73;5.13;;;23.80;97.20;;;;;;1742323;28;20191;-71
2022/05/16 08:27:02;;;;;;;4.82;4.43;;;23.80;97.20;;;;;;1741928;28;20631;-72
2022/05/16 08:27:54;;;;;;;7.20;5.60;;;23.80;97.20;;;;;;1742113;28;20566;-72
2022/05/16 08:28:45;;;;;;;7.22;4.55;;;23.90;97.20;;;;;;1742173;28;20255;-71
2022/05/16 08:29:37;;;;;;;5.33;4.90;;;23.90;97.20;;;;;;1742264;28;20199;-71
2022/05/16 08:30:28;;;;;;;5.07;4.10;;;24.00;97.20;;;;;;1742213;28;20227;-71
2022/05/16 08:31:19;;;;;;;6.90;5.20;;;24.10;97.20;;;;;;1742260;28;20217;-71
2022/05/16 08:32:13;;;;;;;5.25;4.75;;;24.20;97.20;;;;;;1742175;28;20448;-71
2022/05/16 08:33:05;;;;;;;8.18;5.65;;;24.30;97.20;;;;;;1742246;28;20206;-71
2022/05/16 08:33:57;;;;;;;6.25;5.30;;;24.40;97.20;;;;;;1742282;28;20195;-71
2022/05/16 08:34:48;;;;;;;5.05;4.55;;;24.50;97.20;;;;;;1742193;28;20218;-71
2022/05/16 08:35:40;;;;;;;5.60;5.10;;;24.70;97.20;;;;;;1741876;28;20309;-71
2022/05/16 08:40:03;;;;;;;4.93;4.50;;;25.10;97.20;;;;;;1742254;28;20234;-71
2022/05/16 08:40:57;;;;;;;7.28;5.55;;;25.30;97.20;;;;;;1742269;28;20227;-71
2022/05/16 08:41:52;;;;;;;4.93;4.50;;;25.40;97.20;;;;;;1742145;28;20858;-70
2022/05/16 08:42:53;;;;;;;6.20;5.28;;;25.50;97.20;;;;;;1742249;28;20211;-71
2022/05/16 08:43:50;;;;;;;5.28;4.80;;;25.60;97.20;;;;;;1742014;28;20253;-71
2022/05/16 08:44:52;;;;;;;7.30;4.80;;;25.70;97.20;;;;;;1742176;28;20199;-71
2022/05/16 08:45:50;;;;;;;6.78;5.03;;;25.70;97.20;;;;;;1742160;28;20247;-72
2022/05/16 08:46:47;;;;;;;5.22;4.82;;;25.80;97.20;;;;;;1741171;28;20256;-71
2022/05/16 08:47:48;;;;;;;7.75;4.80;;;25.80;97.20;;;;;;1741406;28;20206;-71
2022/05/16 08:48:43;;;;;;;6.25;4.80;;;25.90;97.20;;;;;;1741348;28;20277;-71
2022/05/16 08:49:39;;;;;;;6.40;5.22;;;25.90;97.20;;;;;;1741443;28;20200;-71
2022/05/16 08:50:40;;;;;;;5.53;4.72;;;25.90;97.20;;;;;;1741311;28;20262;-72
2022/05/16 08:51:33;;;;;;;6.07;5.32;;;26.00;97.20;;;;;;1740648;28;20276;-71
2022/05/16 08:52:36;;;;;;;9.30;5.20;;;26.00;97.20;;;;;;1741400;28;20645;-71
2022/05/16 08:53:31;;;;;;;5.75;5.07;;;26.00;97.20;;;;;;1740209;28;20200;-71
2022/05/16 08:54:35;;;;;;;6.15;5.30;;;26.00;97.20;;;;;;1741360;28;20199;-71
2022/05/16 08:55:32;;;;;;;5.40;4.63;;;26.00;97.20;;;;;;1741513;28;20207;-71
2022/05/16 08:56:29;;;;;;;5.38;4.95;;;26.10;97.20;;;;;;1741398;28;20206;-71
2022/05/16 08:57:28;;;;;;;7.00;4.90;;;26.20;97.20;;;;;;1741101;28;20202;-72
2022/05/16 08:58:27;;;;;;;5.20;4.80;;;26.30;97.20;;;;;;1741264;28;20729;-72
2022/05/16 08:59:23;;;;;;;6.57;4.90;;;26.40;97.20;;;;;;1741362;28;20230;-71
2022/05/16 09:00:21;;;;;;;6.22;5.20;;;26.50;97.20;;;;;;1741258;28;20211;-71
2022/05/16 09:01:17;;;;;;;5.40;4.90;;;26.50;97.20;;;;;;1741362;28;20574;-71
2022/05/16 09:02:15;;;;;;;7.60;4.85;;;26.60;97.20;;;;;;1742056;28;20199;-72
2022/05/16 09:03:12;;;;;;;6.30;4.95;;;26.60;97.20;;;;;;1738451;28;20211;-71
2022/05/16 09:04:10;;;;;;;5.47;4.83;;;26.60;97.20;;;;;;1740075;28;20207;-71
2022/05/16 09:05:08;;;;;;;6.80;5.13;;;26.60;97.20;;;;;;1734798;28;21079;-72
2022/05/16 09:06:12;;;;;;;5.60;5.10;;;26.60;97.20;;;;;;1741787;28;20195;-71
2022/05/16 09:07:15;;;;;;;8.75;5.28;;;26.70;97.20;;;;;;1734725;28;20188;-71
2022/05/16 09:08:13;;;;;;;6.07;5.00;;;26.90;97.20;;;;;;1735029;28;20647;-71
2022/05/16 09:09:10;;;;;;;5.85;4.97;;;27.00;97.20;;;;;;1734859;28;20758;-72
2022/05/16 09:10:08;;;;;;;5.07;4.60;;;27.20;97.20;;;;;;1734894;28;20743;-71
2022/05/16 09:11:05;;;;;;;6.22;5.03;;;27.30;97.20;;;;;;1734588;28;20216;-71
2022/05/16 09:12:13;;;;;;;5.40;4.72;;;27.40;97.20;;;;;;1734969;28;20194;-71
2022/05/16 09:13:16;;;;;;;5.55;5.05;;;27.40;97.20;;;;;;1734792;28;20213;-71
2022/05/16 09:14:12;;;;;;;4.90;4.40;;;27.50;97.20;;;;;;1734937;28;20208;-71
2022/05/16 09:15:15;;;;;;;4.93;4.40;;;27.50;97.20;;;;;;1734820;28;20219;-70
2022/05/16 09:16:13;;;;;;;9.05;5.70;;;27.50;97.20;;;;;;1734934;28;20283;-71
2022/05/16 09:17:11;;;;;;;5.45;4.90;;;27.60;97.20;;;;;;1734630;28;20687;-71
2022/05/16 09:18:15;;;;;;;5.18;4.68;;;27.50;97.20;;;;;;1734898;28;20198;-71
2022/05/16 09:19:40;;;;;;;5.78;4.90;;;27.50;97.20;;;;;;1734747;28;20196;-72
2022/05/16 09:20:41;;;;;;;6.57;5.00;;;27.60;97.20;;;;;;1732922;28;20658;-72
2022/05/16 09:21:38;;;;;;;5.18;4.70;;;27.80;97.20;;;;;;1735028;28;20250;-71
2022/05/16 09:22:34;;;;;;;6.05;5.53;;;27.90;97.20;;;;;;1735063;28;20190;-71
2022/05/16 09:23:47;;;;;;;6.47;4.65;;;28.10;97.20;;;;;;1734877;28;20234;-71
2022/05/16 09:24:46;;;;;;;5.28;4.63;;;28.30;97.20;;;;;;1734988;28;20192;-71
2022/05/16 09:25:48;;;;;;;7.07;4.90;;;28.40;97.20;;;;;;1734690;28;20214;-71
2022/05/16 09:26:49;;;;;;;7.63;4.60;;;28.60;97.20;;;;;;1740909;28;20897;-71
2022/05/16 09:28:57;;;;;;;7.30;4.57;;;28.90;97.20;;;;;;1741700;28;20230;-72
2022/05/16 09:29:49;;;;;;;5.25;4.80;;;29.00;97.20;;;;;;1741741;28;20618;-71
2022/05/16 09:30:45;;;;;;;5.93;4.97;;;29.20;97.20;;;;;;1741723;28;20253;-72
2022/05/16 09:31:40;;;;;;;5.03;4.63;;;29.30;97.20;;;;;;1741820;28;20433;-72
2022/05/16 09:32:36;;;;;;;7.57;4.53;;;29.40;97.20;;;;;;1741290;28;20446;-71
2022/05/16 09:33:29;;;;;;;5.85;5.20;;;29.50;97.20;;;;;;1741841;28;20473;-71
2022/05/16 09:34:20;;;;;;;5.32;4.82;;;29.50;97.20;;;;;;1741880;28;20227;-71
2022/05/16 09:35:22;;;;;;;6.53;5.05;;;29.60;97.20;;;;;;1741826;28;20230;-72
2022/05/16 09:36:19;;;;;;;5.33;4.67;;;29.60;97.20;;;;;;1741808;28;20207;-71
2022/05/16 09:37:11;;;;;;;5.00;4.60;;;29.50;97.20;;;;;;1741493;28;20446;-71
2022/05/16 09:38:02;;;;;;;6.00;4.80;;;29.30;97.20;;;;;;1741752;28;20476;-71
2022/05/16 09:38:54;;;;;;;5.10;4.60;;;29.10;97.20;;;;;;1741809;28;20448;-72
2022/05/16 09:39:45;;;;;;;6.17;4.70;;;28.90;97.20;;;;;;1741111;28;20450;-70
2022/05/16 09:40:41;;;;;;;6.20;5.07;;;28.70;97.20;;;;;;1741761;28;20520;-70
2022/05/16 09:41:42;;;;;;;5.22;4.72;;;28.50;97.20;;;;;;1741782;28;20589;-72
2022/05/16 09:42:35;;;;;;;8.47;4.50;;;28.30;97.20;;;;;;1741503;28;20269;-71
2022/05/16 09:43:30;;;;;;;5.83;5.33;;;28.10;97.20;;;;;;1734813;28;20521;-71
2022/05/16 09:44:26;;;;;;;5.83;5.33;;;27.90;97.20;;;;;;1734855;28;20969;-71
2022/05/16 09:45:22;;;;;;;5.20;4.60;;;27.70;97.20;;;;;;1734870;28;20962;-72
2022/05/16 09:46:24;;;;;;;5.87;5.27;;;27.50;97.20;;;;;;1734603;28;20812;-71
2022/05/16 09:47:23;;;;;;;7.83;5.10;;;27.30;97.20;;;;;;1734458;28;20805;-71
2022/05/16 09:48:17;;;;;;;10.88;5.82;;;27.10;97.20;;;;;;1734735;28;20438;-71
2022/05/16 09:49:13;;;;;;;8.07;5.17;;;26.90;97.20;;;;;;1734593;28;20648;-71
2022/05/16 09:50:11;;;;;;;6.35;4.88;;;26.80;97.20;;;;;;1734664;28;20482;-71
2022/05/16 09:51:05;;;;;;;6.03;5.00;;;26.60;97.20;;;;;;1734665;28;20568;-72
2022/05/16 09:51:59;;;;;;;5.93;5.05;;;26.50;97.20;;;;;;1734893;28;20529;-72
2022/05/16 09:52:51;;;;;;;5.13;4.47;;;26.40;97.20;;;;;;1734741;28;20310;-72